Time;durP1;ratioP1;P1;durP2;ratioP2;P2;SDS_P1;SDS_P2;PMS_P1;PMS_P2;Temp;Humidity;BMP_temperature;BMP_pressure;BME280_temperature;BME280_humidity;BME280_pressure;Samples;Min_cycle;Max_cycle;Signal;HPM_P1;HPM_P2
2023/06/09 00:07:03;;;;;;;131.00;56.55;;;10.50;99.90;;;;;;21068241;28;20036;-48
2023/06/09 00:17:07;;;;;;;120.40;56.10;;;10.50;99.90;;;;;;21066754;28;20032;-50
2023/06/09 00:27:10;;;;;;;145.38;63.15;;;10.50;99.90;;;;;;21066325;28;20546;-49
2023/06/09 00:37:12;;;;;;;150.95;63.13;;;10.70;99.90;;;;;;21062556;28;20577;-42
2023/06/09 00:47:13;;;;;;;148.75;63.47;;;10.90;99.90;;;;;;21047287;28;20027;-42
2023/06/09 00:57:16;;;;;;;143.88;63.55;;;11.00;99.90;;;;;;21066458;28;20028;-44
2023/06/09 01:07:54;;;;;;;93.72;48.05;;;11.10;99.90;;;;;;21047111;28;20043;-42
2023/06/09 01:18:02;;;;;;;93.32;44.78;;;11.20;99.90;;;;;;21064577;28;20036;-50
2023/06/09 01:28:11;;;;;;;99.75;50.78;;;11.30;99.90;;;;;;21062681;28;20028;-50
2023/06/09 01:38:14;;;;;;;64.43;37.27;;;11.40;99.90;;;;;;21060554;28;20546;-42
2023/06/09 01:48:37;;;;;;;56.92;33.78;;;11.50;99.90;;;;;;21078704;28;20093;-51
2023/06/09 01:58:55;;;;;;;49.85;28.95;;;11.70;99.90;;;;;;21076276;28;20074;-49
2023/06/09 02:08:57;;;;;;;75.30;40.17;;;11.50;99.90;;;;;;21057686;28;20032;-53
2023/06/09 02:18:58;;;;;;;70.28;38.22;;;11.40;99.90;;;;;;21076468;28;20028;-44
2023/06/09 02:29:00;;;;;;;68.45;38.55;;;11.40;99.90;;;;;;21057346;28;20362;-44
2023/06/09 02:39:06;;;;;;;80.28;41.83;;;11.40;99.90;;;;;;21054465;28;20048;-49
2023/06/09 02:49:08;;;;;;;72.93;40.67;;;11.40;99.90;;;;;;21055450;28;20036;-45
2023/06/09 02:59:10;;;;;;;93.78;45.40;;;11.30;99.90;;;;;;21069441;28;20032;-45
2023/06/09 03:09:15;;;;;;;84.55;44.85;;;11.30;99.90;;;;;;21052674;28;20469;-52
2023/06/09 03:19:18;;;;;;;101.90;47.88;;;11.20;99.90;;;;;;21071227;28;20109;-43
2023/06/09 03:29:21;;;;;;;91.47;45.20;;;11.10;99.90;;;;;;21049027;28;20039;-42
2023/06/09 03:39:23;;;;;;;97.63;46.85;;;10.80;99.90;;;;;;21069888;28;20573;-49
2023/06/09 03:49:25;;;;;;;88.40;44.53;;;10.60;99.90;;;;;;21069393;28;20039;-42
2023/06/09 03:59:26;;;;;;;102.43;48.35;;;10.50;99.90;;;;;;21049639;28;20035;-42
2023/06/09 04:09:32;;;;;;;102.70;50.60;;;10.50;99.90;;;;;;21049798;28;20032;-49
2023/06/09 04:19:34;;;;;;;96.43;48.20;;;10.60;99.90;;;;;;21068198;28;20024;-42
2023/06/09 04:29:40;;;;;;;103.18;49.20;;;10.80;99.90;;;;;;21048126;28;20040;-48
2023/06/09 04:39:45;;;;;;;85.30;44.85;;;11.00;99.90;;;;;;21045300;28;20047;-42
2023/06/09 04:49:50;;;;;;;76.70;42.35;;;11.20;99.90;;;;;;21045306;28;20436;-43
2023/06/09 04:59:53;;;;;;;82.93;45.10;;;11.40;99.90;;;;;;21047330;28;20044;-42
2023/06/09 05:09:54;;;;;;;72.25;41.20;;;11.50;99.90;;;;;;21076130;28;20036;-43
2023/06/09 05:19:56;;;;;;;62.25;38.17;;;11.70;99.90;;;;;;21063938;28;20546;-45
2023/06/09 05:29:58;;;;;;;55.08;34.50;;;11.80;99.90;;;;;;21061526;28;20036;-42
2023/06/09 05:40:01;;;;;;;50.08;33.08;;;12.10;99.90;;;;;;21061533;28;20141;-49
2023/06/09 05:50:02;;;;;;;45.70;31.15;;;12.40;99.90;;;;;;21079700;28;20032;-55
2023/06/09 06:00:08;;;;;;;40.80;28.02;;;12.70;99.90;;;;;;21079298;28;20036;-42
2023/06/09 06:10:14;;;;;;;24.30;17.00;;;13.00;99.90;;;;;;21074906;28;20032;-49
2023/06/09 06:20:16;;;;;;;19.23;15.63;;;15.50;99.90;;;;;;21075814;28;20032;-51
2023/06/09 06:30:19;;;;;;;10.02;8.43;;;17.40;99.90;;;;;;21075346;28;20231;-50
2023/06/09 06:40:21;;;;;;;8.82;7.05;;;19.70;99.90;;;;;;21071451;28;20035;-56
2023/06/09 06:50:23;;;;;;;10.35;9.27;;;22.70;99.90;;;;;;21074268;28;20028;-57
2023/06/09 07:00:24;;;;;;;9.10;8.13;;;23.90;99.90;;;;;;21073362;28;20439;-57
2023/06/09 07:10:26;;;;;;;11.30;10.20;;;24.80;99.90;;;;;;21072141;28;20024;-43
2023/06/09 07:20:28;;;;;;;10.82;9.77;;;23.50;99.90;;;;;;21071763;28;20032;-49
2023/06/09 07:30:29;;;;;;;8.60;7.75;;;21.60;99.90;;;;;;21069581;28;20474;-49
2023/06/09 07:40:31;;;;;;;7.53;6.82;;;20.20;99.90;;;;;;21070797;28;20044;-45
2023/06/09 07:50:33;;;;;;;9.77;8.77;;;21.20;99.90;;;;;;21069534;28;20036;-56
2023/06/09 08:00:35;;;;;;;9.05;8.18;;;23.60;99.90;;;;;;21068490;28;20097;-56
2023/06/09 08:10:37;;;;;;;11.60;10.40;;;23.80;99.90;;;;;;21067663;28;20435;-44
2023/06/09 08:20:40;;;;;;;12.27;10.68;;;22.60;99.90;;;;;;21067369;28;20109;-44
2023/06/09 08:30:42;;;;;;;11.30;10.10;;;21.20;99.90;;;;;;21066468;28;20024;-56
2023/06/09 08:40:43;;;;;;;14.07;10.10;;;20.70;99.90;;;;;;21065757;28;20065;-55
2023/06/09 08:50:46;;;;;;;13.45;11.45;;;20.50;99.90;;;;;;21065826;28;20101;-50
2023/06/09 09:00:51;;;;;;;12.50;10.55;;;20.00;99.90;;;;;;21046843;28;20089;-51
2023/06/09 09:10:53;;;;;;;11.32;10.13;;;21.40;99.90;;;;;;21064472;28;20457;-54
2023/06/09 09:20:55;;;;;;;14.00;12.50;;;21.90;99.90;;;;;;21064908;28;20032;-51
2023/06/09 09:30:57;;;;;;;13.55;12.15;;;21.10;99.90;;;;;;21061383;28;20036;-52
2023/06/09 09:41:00;;;;;;;10.68;9.57;;;21.50;99.90;;;;;;21064340;28;20405;-53
2023/06/09 09:51:02;;;;;;;12.98;11.13;;;21.60;99.90;;;;;;21064967;28;20040;-43
2023/06/09 10:01:06;;;;;;;12.38;11.07;;;21.40;99.90;;;;;;21078036;28;20028;-52
2023/06/09 10:11:08;;;;;;;14.27;12.00;;;21.30;99.90;;;;;;21075450;28;20036;-48
2023/06/09 10:21:11;;;;;;;14.95;13.40;;;22.10;99.90;;;;;;21076818;28;20028;-51
2023/06/09 10:31:14;;;;;;;18.30;16.48;;;22.00;99.90;;;;;;21075231;28;20047;-44
2023/06/09 10:41:28;;;;;;;19.23;17.25;;;22.90;99.90;;;;;;21074811;28;20054;-56
2023/06/09 10:51:30;;;;;;;19.83;17.83;;;22.80;99.90;;;;;;21071402;28;20550;-53
2023/06/09 11:01:32;;;;;;;17.38;15.57;;;22.50;99.90;;;;;;21073140;28;20028;-51
2023/06/09 11:11:50;;;;;;;19.58;17.48;;;22.90;99.90;;;;;;21072366;28;20428;-54
2023/06/09 11:22:02;;;;;;;;;;;21.90;99.90;;;;;;21069467;28;20035;-55
2023/06/09 11:32:05;;;;;;;25.48;22.63;;;21.00;99.90;;;;;;21070581;28;20327;-53
2023/06/09 11:42:08;;;;;;;22.48;20.08;;;20.20;99.90;;;;;;21069616;28;20089;-52
2023/06/09 11:52:10;;;;;;;28.20;23.20;;;20.70;99.90;;;;;;21069489;28;20546;-49
2023/06/09 12:02:12;;;;;;;28.70;24.80;;;20.80;99.90;;;;;;21065743;28;20024;-53
2023/06/09 12:12:14;;;;;;;28.80;25.33;;;20.60;99.90;;;;;;21049502;28;20470;-52
2023/06/09 12:22:16;;;;;;;27.60;22.85;;;21.30;99.90;;;;;;21066609;28;20028;-56
2023/06/09 12:32:23;;;;;;;24.45;21.77;;;23.20;99.90;;;;;;21067606;28;20062;-57
2023/06/09 12:42:26;;;;;;;24.02;21.15;;;25.20;99.90;;;;;;21065895;28;20085;-56
2023/06/09 12:52:27;;;;;;;22.25;19.65;;;25.20;99.90;;;;;;21065595;28;20036;-54
2023/06/09 13:02:29;;;;;;;24.05;21.55;;;24.10;99.90;;;;;;21063616;28;20028;-45
2023/06/09 13:12:31;;;;;;;24.02;20.67;;;22.90;99.90;;;;;;21064801;28;20036;-48
2023/06/09 13:22:32;;;;;;;23.90;21.10;;;21.50;99.90;;;;;;21064624;28;20477;-53
2023/06/09 13:32:35;;;;;;;26.10;21.60;;;21.20;99.90;;;;;;21077628;28;20035;-51
2023/06/09 13:42:37;;;;;;;28.42;24.83;;;20.70;99.90;;;;;;21079565;28;20110;-50
2023/06/09 13:52:39;;;;;;;25.20;22.25;;;20.00;99.90;;;;;;21079227;28;20032;-44
2023/06/09 14:02:42;;;;;;;28.02;25.00;;;19.50;99.90;;;;;;21076155;28;20036;-49
2023/06/09 14:12:47;;;;;;;28.05;23.70;;;19.70;99.90;;;;;;21077445;28;20036;-49
2023/06/09 14:22:50;;;;;;;27.70;24.67;;;20.30;99.90;;;;;;21076682;28;20042;-54
2023/06/09 14:32:52;;;;;;;26.83;23.92;;;21.00;99.90;;;;;;21075605;28;20077;-49
2023/06/09 14:42:54;;;;;;;29.13;24.75;;;20.80;99.90;;;;;;21076285;28;20121;-51
2023/06/09 14:52:56;;;;;;;31.00;26.60;;;20.20;99.90;;;;;;21070727;28;20403;-50
2023/06/09 15:02:59;;;;;;;26.48;20.42;;;20.00;99.90;;;;;;21073341;28;20090;-49
2023/06/09 15:13:02;;;;;;;24.92;22.08;;;21.40;99.90;;;;;;21072383;28;20097;-54
2023/06/09 15:23:05;;;;;;;22.13;18.88;;;21.80;99.90;;;;;;21071726;28;20032;-45
2023/06/09 15:33:09;;;;;;;27.65;23.88;;;23.90;99.90;;;;;;21070561;28;20039;-45
2023/06/09 15:43:13;;;;;;;33.00;28.88;;;21.00;99.90;;;;;;21070035;28;20048;-54
2023/06/09 15:53:19;;;;;;;35.35;29.27;;;19.00;99.90;;;;;;21068394;28;20081;-52
2023/06/09 16:03:21;;;;;;;26.42;22.85;;;18.30;99.90;;;;;;21065664;28;20028;-43
2023/06/09 16:13:22;;;;;;;32.60;27.73;;;18.90;99.90;;;;;;21067605;28;20538;-55
2023/06/09 16:23:24;;;;;;;31.63;28.20;;;19.30;99.90;;;;;;21067307;28;20439;-50
2023/06/09 16:33:26;;;;;;;37.38;31.10;;;18.60;99.90;;;;;;21064103;28;20442;-45
2023/06/09 16:43:27;;;;;;;36.35;29.70;;;18.10;99.90;;;;;;21065954;28;20048;-55
2023/06/09 16:53:29;;;;;;;37.13;30.48;;;17.70;99.90;;;;;;21065948;28;20040;-52
2023/06/09 17:03:31;;;;;;;40.25;32.45;;;17.80;99.90;;;;;;21072489;28;20032;-45
2023/06/09 17:13:32;;;;;;;38.80;30.85;;;17.70;99.90;;;;;;21081712;28;20032;-48
2023/06/09 17:23:34;;;;;;;39.00;31.85;;;17.40;99.90;;;;;;21081518;28;20036;-53
2023/06/09 17:33:35;;;;;;;43.92;34.85;;;17.20;99.90;;;;;;21077618;28;20474;-43
2023/06/09 17:43:37;;;;;;;39.97;32.55;;;17.10;99.90;;;;;;20999164;28;20036;-49
2023/06/09 17:53:40;;;;;;;44.08;35.80;;;16.80;99.90;;;;;;20994561;28;20036;-55
2023/06/09 18:03:41;;;;;;;42.35;33.88;;;16.60;99.90;;;;;;20993293;28;20029;-48
2023/06/09 18:13:43;;;;;;;45.13;34.33;;;16.30;99.90;;;;;;20991801;28;20055;-44
2023/06/09 18:23:45;;;;;;;48.70;35.15;;;16.10;99.90;;;;;;20992489;28;20416;-54
2023/06/09 18:33:46;;;;;;;46.58;36.00;;;15.80;99.90;;;;;;20988375;28;20059;-44
2023/06/09 18:43:48;;;;;;;49.92;35.20;;;15.40;99.90;;;;;;21074849;28;20040;-48
2023/06/09 18:53:50;;;;;;;49.05;35.10;;;15.00;99.90;;;;;;21074418;28;20035;-54
2023/06/09 19:03:52;;;;;;;58.38;38.83;;;14.60;99.90;;;;;;21073248;28;20032;-49
2023/06/09 19:13:57;;;;;;;53.67;37.78;;;14.30;99.90;;;;;;21067958;28;20035;-52
2023/06/09 19:23:59;;;;;;;51.58;36.72;;;14.20;99.90;;;;;;21053460;28;20032;-49
2023/06/09 19:34:02;;;;;;;52.28;37.10;;;14.00;99.90;;;;;;21050443;28;20032;-44
2023/06/09 19:44:04;;;;;;;66.93;44.60;;;13.70;99.90;;;;;;21069910;28;20452;-53
2023/06/09 19:54:05;;;;;;;67.70;43.88;;;13.30;99.90;;;;;;21069414;28;20489;-48
2023/06/09 20:04:07;;;;;;;76.43;48.40;;;13.00;99.90;;;;;;21068922;28;20028;-47
2023/06/09 20:14:09;;;;;;;70.28;45.40;;;12.90;99.90;;;;;;21066764;28;20044;-53
2023/06/09 20:24:10;;;;;;;61.15;40.03;;;12.80;99.90;;;;;;21067703;28;20105;-47
2023/06/09 20:34:12;;;;;;;48.38;32.25;;;12.90;99.90;;;;;;21047954;28;20341;-52
2023/06/09 20:44:14;;;;;;;45.08;31.95;;;12.90;99.90;;;;;;21066349;28;20032;-49
2023/06/09 20:54:18;;;;;;;43.55;29.70;;;12.90;99.90;;;;;;21065912;28;20181;-50
2023/06/09 21:04:20;;;;;;;40.95;27.75;;;12.90;99.90;;;;;;21063830;28;20062;-54
2023/06/09 21:14:22;;;;;;;41.78;28.13;;;12.70;99.90;;;;;;21065155;28;20028;-52
2023/06/09 21:24:23;;;;;;;42.83;29.42;;;12.60;99.90;;;;;;21064655;28;20307;-49
2023/06/09 21:34:25;;;;;;;46.03;31.63;;;12.50;99.90;;;;;;21064281;28;20460;-49
2023/06/09 21:44:26;;;;;;;52.65;34.92;;;12.30;99.90;;;;;;21063551;28;20063;-48
2023/06/09 21:54:28;;;;;;;62.72;37.75;;;12.20;99.90;;;;;;21076394;28;20062;-43
2023/06/09 22:04:29;;;;;;;63.70;40.15;;;12.30;99.90;;;;;;21077281;28;20028;-49
2023/06/09 22:14:32;;;;;;;66.60;41.53;;;12.30;99.90;;;;;;21077307;28;20105;-50
2023/06/09 22:24:34;;;;;;;57.53;36.90;;;12.30;99.90;;;;;;21077107;28;20469;-50
2023/06/09 22:34:35;;;;;;;60.78;38.42;;;12.30;99.90;;;;;;21057020;28;20047;-47
2023/06/09 22:44:38;;;;;;;61.58;37.20;;;12.20;99.90;;;;;;21075123;28;20024;-54
2023/06/09 22:54:39;;;;;;;44.72;30.60;;;12.10;99.90;;;;;;21074295;28;20477;-51
2023/06/09 23:04:41;;;;;;;43.53;25.27;;;11.90;99.90;;;;;;21072999;28;20055;-49
2023/06/09 23:14:43;;;;;;;39.17;25.60;;;11.70;99.90;;;;;;21072749;28;20058;-48
2023/06/09 23:24:45;;;;;;;36.72;25.50;;;11.60;99.90;;;;;;21071937;28;20366;-48
2023/06/09 23:34:47;;;;;;;44.53;29.30;;;11.50;99.90;;;;;;21071653;28;20434;-44
2023/06/09 23:44:49;;;;;;;51.97;32.00;;;11.60;99.90;;;;;;21070268;28;20136;-43
2023/06/09 23:54:51;;;;;;;44.05;28.48;;;11.50;99.90;;;;;;21069612;28;20044;-48
